Time;durP1;ratioP1;P1;durP2;ratioP2;P2;SDS_P1;SDS_P2;PMS_P1;PMS_P2;Temp;Humidity;BMP_temperature;BMP_pressure;BME280_temperature;BME280_humidity;BME280_pressure;Samples;Min_cycle;Max_cycle;Signal;HPM_P1;HPM_P2
2022/10/18 00:01:56;;;;;;;57.83;34.22;;;;;;;16.44;100.00;101748.97;4920844;29;20043;-87
2022/10/18 00:04:22;;;;;;;62.03;34.42;;;;;;;16.51;100.00;101747.28;4923217;29;20127;-86
2022/10/18 00:06:47;;;;;;;57.55;34.28;;;;;;;16.61;100.00;101747.97;4922526;29;20047;-87
2022/10/18 00:09:13;;;;;;;60.33;32.67;;;;;;;16.71;100.00;101742.41;4927771;29;20573;-87
2022/10/18 00:11:39;;;;;;;62.83;35.03;;;;;;;16.43;100.00;101739.28;4936838;29;20051;-87
2022/10/18 00:14:05;;;;;;;59.25;33.45;;;;;;;16.33;100.00;101738.66;4936755;29;20032;-86
2022/10/18 00:16:31;;;;;;;71.35;36.33;;;;;;;16.11;100.00;101731.31;4940487;29;20048;-87
2022/10/18 00:18:59;;;;;;;70.25;38.05;;;;;;;16.01;100.00;101732.31;4941630;29;20016;-87
2022/10/18 00:21:25;;;;;;;62.92;35.63;;;;;;;16.27;100.00;101733.97;4942633;29;20038;-87
2022/10/18 00:23:52;;;;;;;65.18;36.75;;;;;;;16.17;100.00;101717.28;4926838;29;20032;-87
2022/10/18 00:26:23;;;;;;;69.70;36.97;;;;;;;16.15;100.00;101724.59;4925678;29;20068;-87
2022/10/18 00:28:51;;;;;;;69.47;37.88;;;;;;;16.07;100.00;101727.31;4928178;29;20131;-88
2022/10/18 00:31:27;;;;;;;77.85;37.45;;;;;;;16.03;100.00;101716.94;4922371;29;20036;-86
2022/10/18 00:34:10;;;;;;;69.25;37.45;;;;;;;15.95;100.00;101724.13;4922984;29;20447;-87
2022/10/18 00:36:36;;;;;;;64.25;36.72;;;;;;;16.16;100.00;101726.28;4922387;29;20172;-85
2022/10/18 00:39:05;;;;;;;70.13;36.97;;;;;;;15.99;100.00;101730.81;4921873;29;20088;-85
2022/10/18 00:41:33;;;;;;;71.13;38.53;;;;;;;15.83;100.00;101731.66;4921661;29;20192;-85
2022/10/18 00:44:05;;;;;;;69.85;36.80;;;;;;;15.80;100.00;101723.13;4921740;29;20028;-87
2022/10/18 00:46:36;;;;;;;66.72;36.25;;;;;;;15.85;100.00;101718.09;4922097;29;20056;-86
2022/10/18 00:49:08;;;;;;;82.97;38.40;;;;;;;15.69;100.00;101716.28;4921740;29;20047;-86
2022/10/18 00:51:40;;;;;;;76.28;37.75;;;;;;;15.58;100.00;101721.94;4921407;29;20042;-85
2022/10/18 00:54:05;;;;;;;70.90;38.75;;;;;;;15.56;100.00;101717.75;4921623;29;20032;-85
2022/10/18 00:56:33;;;;;;;63.15;35.20;;;;;;;15.66;100.00;101719.28;4919567;29;20099;-83
2022/10/18 00:59:01;;;;;;;73.35;37.42;;;;;;;15.63;100.00;101714.28;4946144;29;20074;-83
2022/10/18 01:01:27;;;;;;;68.30;37.10;;;;;;;15.65;100.00;101706.91;4943452;29;20067;-85
2022/10/18 01:03:53;;;;;;;70.40;37.15;;;;;;;15.77;100.00;101713.63;4939481;29;20063;-85
2022/10/18 01:06:19;;;;;;;76.30;37.85;;;;;;;15.66;100.00;101713.94;4939703;29;20031;-86
2022/10/18 01:08:56;;;;;;;72.88;37.05;;;;;;;15.67;100.00;101704.94;4939500;29;20050;-87
2022/10/18 01:11:46;;;;;;;66.97;36.55;;;;;;;15.58;100.00;101700.56;4939648;29;20094;-85
2022/10/18 01:14:27;;;;;;;72.38;39.00;;;;;;;15.61;100.00;101700.22;4922479;29;20072;-85
2022/10/18 01:17:03;;;;;;;69.03;37.35;;;;;;;15.62;100.00;101698.38;4939495;29;20083;-86
2022/10/18 01:19:37;;;;;;;70.47;38.38;;;;;;;15.64;100.00;101686.56;4939495;29;20580;-85
2022/10/18 01:22:18;;;;;;;71.72;37.30;;;;;;;15.83;100.00;101686.22;4939430;29;20078;-85
2022/10/18 01:24:56;;;;;;;68.07;36.38;;;;;;;15.75;100.00;101696.91;4938926;29;20035;-85
2022/10/18 01:27:36;;;;;;;69.15;36.90;;;;;;;15.67;100.00;101690.72;4939046;29;20446;-85
2022/10/18 01:30:28;;;;;;;63.63;36.08;;;;;;;15.55;100.00;101689.38;4937825;29;20385;-84
2022/10/18 01:33:10;;;;;;;68.83;37.20;;;;;;;15.50;100.00;101676.53;4938182;29;20130;-85
2022/10/18 01:35:41;;;;;;;73.93;38.38;;;;;;;15.41;100.00;101682.84;4936970;29;20058;-85
2022/10/18 01:38:12;;;;;;;72.53;37.08;;;;;;;15.27;100.00;101686.97;4938394;29;20039;-85
2022/10/18 01:40:42;;;;;;;79.18;39.03;;;;;;;15.22;100.00;101683.09;4937921;29;20051;-86
2022/10/18 01:43:10;;;;;;;68.47;37.88;;;;;;;15.24;100.00;101681.13;4936935;29;20032;-86
2022/10/18 01:45:36;;;;;;;67.30;36.63;;;;;;;15.48;100.00;101683.84;4944750;29;20039;-86
2022/10/18 01:48:02;;;;;;;75.05;40.42;;;;;;;15.48;100.00;101681.19;4957479;28;20035;-85
2022/10/18 01:50:30;;;;;;;78.03;38.10;;;;;;;15.38;100.00;101677.78;4961629;28;20050;-86
2022/10/18 01:52:57;;;;;;;67.90;37.97;;;;;;;15.32;100.00;101673.94;4959448;28;20042;-89
2022/10/18 01:55:36;;;;;;;72.35;38.28;;;;;;;15.23;100.00;101674.09;4957015;28;20118;-87
2022/10/18 01:58:17;;;;;;;69.22;36.65;;;;;;;15.25;100.00;101680.09;4957089;28;20110;-85
2022/10/18 02:00:43;;;;;;;71.55;37.00;;;;;;;15.25;100.00;101678.28;4955588;29;20067;-87
2022/10/18 02:03:25;;;;;;;65.53;35.60;;;;;;;15.33;100.00;101669.44;4957179;28;20563;-89
2022/10/18 02:06:37;;;;;;;46.78;25.75;;;;;;;15.45;100.00;101665.44;4939711;29;20039;-88
2022/10/18 02:09:12;;;;;;;70.07;36.03;;;;;;;15.28;100.00;101661.91;4956608;28;20051;-85
2022/10/18 02:11:41;;;;;;;67.75;36.80;;;;;;;15.11;100.00;101660.25;4956682;28;20042;-86
2022/10/18 02:14:13;;;;;;;70.50;36.55;;;;;;;15.10;100.00;101669.25;4955414;29;20042;-84
2022/10/18 02:16:50;;;;;;;62.72;36.60;;;;;;;15.08;100.00;101665.06;4956902;28;20027;-85
2022/10/18 02:19:25;;;;;;;68.82;36.58;;;;;;;15.22;100.00;101654.56;4955235;29;20043;-87
2022/10/18 02:21:53;;;;;;;75.13;37.30;;;;;;;15.21;100.00;101649.41;4957678;29;20182;-86
2022/10/18 02:24:22;;;;;;;73.43;36.58;;;;;;;15.22;100.00;101656.41;4956793;28;20114;-85
2022/10/18 02:26:49;;;;;;;67.20;35.13;;;;;;;15.22;100.00;101651.06;4955123;28;20047;-85
2022/10/18 02:29:15;;;;;;;68.07;36.45;;;;;;;15.34;100.00;101655.09;4956718;28;20400;-88
2022/10/18 02:31:47;;;;;;;74.78;35.60;;;;;;;15.24;100.00;101651.75;4956690;28;20047;-89
2022/10/18 02:34:28;;;;;;;63.83;35.03;;;;;;;15.21;100.00;101649.41;4955540;29;20489;-86
2022/10/18 02:36:58;;;;;;;68.35;35.47;;;;;;;15.11;100.00;101662.06;4956495;28;20027;-87
2022/10/18 02:39:33;;;;;;;63.50;33.67;;;;;;;15.00;100.00;101657.88;4956046;29;20109;-86
2022/10/18 02:41:59;;;;;;;73.57;35.42;;;;;;;15.08;100.00;101654.41;4956093;29;20031;-87
2022/10/18 02:44:25;;;;;;;73.85;36.88;;;;;;;15.08;100.00;101654.41;4956197;28;20031;-86
2022/10/18 02:46:51;;;;;;;64.97;34.67;;;;;;;15.14;100.00;101649.22;4955959;28;20038;-87
2022/10/18 02:49:20;;;;;;;62.30;34.97;;;;;;;15.25;100.00;101648.06;4956073;28;20481;-88
2022/10/18 02:51:45;;;;;;;65.65;34.65;;;;;;;15.21;100.00;101638.72;4955699;29;20035;-85
2022/10/18 02:54:11;;;;;;;62.55;33.92;;;;;;;15.25;100.00;101642.72;4955998;28;20034;-87
2022/10/18 02:56:36;;;;;;;59.45;34.00;;;;;;;15.20;100.00;101647.72;4955681;29;20162;-85
2022/10/18 02:59:03;;;;;;;56.60;32.53;;;;;;;15.40;100.00;101649.94;4954419;29;20050;-86
2022/10/18 03:01:29;;;;;;;56.83;31.55;;;;;;;15.40;100.00;101654.44;4956172;28;20046;-86
2022/10/18 03:03:55;;;;;;;62.53;33.15;;;;;;;15.42;100.00;101658.59;4955664;29;20035;-85
2022/10/18 03:06:20;;;;;;;61.03;34.67;;;;;;;15.44;100.00;101661.13;4956216;28;20067;-87
2022/10/18 03:08:46;;;;;;;64.10;34.80;;;;;;;15.26;100.00;101657.75;4955530;29;20027;-86
2022/10/18 03:11:12;;;;;;;64.20;34.95;;;;;;;15.30;100.00;101648.41;4958818;29;20035;-86
2022/10/18 03:13:37;;;;;;;64.75;35.88;;;;;;;15.14;100.00;101653.72;4962347;29;20098;-85
2022/10/18 03:16:03;;;;;;;69.82;37.05;;;;;;;15.01;100.00;101655.03;4955640;28;20465;-86
2022/10/18 03:18:28;;;;;;;68.20;36.42;;;;;;;15.19;100.00;101654.91;4955811;29;20106;-85
2022/10/18 03:20:54;;;;;;;70.38;36.38;;;;;;;15.14;100.00;101649.22;4938124;29;20069;-86
2022/10/18 03:23:20;;;;;;;71.15;37.25;;;;;;;15.10;100.00;101663.91;4955715;29;20035;-85
2022/10/18 03:25:48;;;;;;;74.15;36.65;;;;;;;15.10;100.00;101655.06;4955376;28;20038;-86
2022/10/18 03:28:13;;;;;;;67.85;34.92;;;;;;;15.19;100.00;101652.22;4941733;28;20493;-86
2022/10/18 03:30:39;;;;;;;65.07;35.10;;;;;;;15.23;100.00;101647.41;4935889;29;20090;-87
2022/10/18 03:33:05;;;;;;;69.60;36.65;;;;;;;15.18;100.00;101650.56;4934550;29;20028;-87
2022/10/18 03:35:31;;;;;;;68.35;36.20;;;;;;;15.16;100.00;101647.22;4936477;29;20028;-85
2022/10/18 03:37:56;;;;;;;70.18;36.30;;;;;;;14.96;100.00;101652.03;4935563;29;20055;-85
2022/10/18 03:40:22;;;;;;;67.75;36.28;;;;;;;15.08;100.00;101654.41;4935596;29;20032;-88
2022/10/18 03:42:47;;;;;;;75.25;37.97;;;;;;;15.08;100.00;101659.72;4934823;29;20046;-88
2022/10/18 03:45:13;;;;;;;64.05;36.42;;;;;;;14.93;100.00;101657.69;4936119;29;20043;-86
2022/10/18 03:47:39;;;;;;;66.55;35.50;;;;;;;15.01;100.00;101655.03;4936294;29;20115;-85
2022/10/18 03:50:05;;;;;;;65.30;36.22;;;;;;;15.09;100.00;101664.91;4948910;29;20036;-87
2022/10/18 03:52:31;;;;;;;77.28;37.78;;;;;;;14.92;100.00;101657.84;4958537;29;20050;-84
2022/10/18 03:54:57;;;;;;;69.75;37.15;;;;;;;14.90;100.00;101662.50;4951521;29;20047;-85
2022/10/18 03:57:22;;;;;;;71.22;37.22;;;;;;;14.94;100.00;101647.84;4950725;29;20036;-85
2022/10/18 03:59:48;;;;;;;73.63;38.78;;;;;;;14.78;100.00;101653.94;4949965;29;20095;-85
2022/10/18 04:02:13;;;;;;;82.82;40.55;;;;;;;14.69;100.00;101664.75;4947198;29;20042;-84
2022/10/18 04:04:39;;;;;;;74.97;40.58;;;;;;;14.62;100.00;101664.56;4947284;29;20027;-86
2022/10/18 04:07:04;;;;;;;84.50;42.13;;;;;;;14.59;100.00;101659.56;4938676;29;20040;-87
2022/10/18 04:09:30;;;;;;;79.03;40.63;;;;;;;14.62;100.00;101647.72;4952311;29;20087;-85
2022/10/18 04:11:58;;;;;;;75.40;40.40;;;;;;;14.84;100.00;101642.66;4955270;28;20039;-85
2022/10/18 04:14:24;;;;;;;75.20;38.33;;;;;;;14.88;100.00;101643.97;4937918;29;20382;-83
2022/10/18 04:16:49;;;;;;;71.10;36.83;;;;;;;14.84;100.00;101653.34;4955701;28;20046;-85
2022/10/18 04:19:15;;;;;;;74.13;39.40;;;;;;;14.86;100.00;101650.47;4955729;29;20050;-85
2022/10/18 04:21:41;;;;;;;75.53;39.83;;;;;;;14.86;100.00;101654.00;4957310;28;20124;-86
2022/10/18 04:27:54;;;;;;;68.95;37.53;;;;;;;14.87;100.00;101652.16;4961927;29;20067;-88
2022/10/18 04:30:20;;;;;;;73.10;36.60;;;;;;;14.95;100.00;101644.16;4975394;28;20044;-89
2022/10/18 04:32:46;;;;;;;66.85;36.17;;;;;;;14.94;100.00;101650.53;4977290;28;20055;-90
2022/10/18 04:35:11;;;;;;;73.55;36.85;;;;;;;15.08;100.00;101654.41;4976147;28;20206;-91
2022/10/18 04:37:38;;;;;;;73.70;38.53;;;;;;;14.81;100.00;101658.16;4977412;28;20035;-89
2022/10/18 04:40:04;;;;;;;77.55;36.83;;;;;;;14.82;100.00;101655.31;4978181;28;20099;-88
2022/10/18 04:42:29;;;;;;;69.82;37.30;;;;;;;14.85;100.00;101656.81;4972313;28;20031;-86
2022/10/18 04:44:55;;;;;;;74.72;37.28;;;;;;;15.03;100.00;101654.88;4956773;29;20039;-84
2022/10/18 04:47:20;;;;;;;72.95;36.97;;;;;;;15.13;100.00;101649.38;4957810;28;20082;-88
2022/10/18 04:49:46;;;;;;;67.70;36.38;;;;;;;15.13;100.00;101646.72;4957127;28;20039;-86
2022/10/18 04:52:12;;;;;;;71.25;36.22;;;;;;;15.21;100.00;101644.88;4961315;29;20027;-92
2022/10/18 04:54:37;;;;;;;72.32;36.45;;;;;;;15.29;100.00;101646.72;4944626;29;20035;-90
2022/10/18 04:57:03;;;;;;;74.32;38.08;;;;;;;15.21;100.00;101644.88;4961967;29;20043;-87
2022/10/18 04:59:29;;;;;;;79.22;38.63;;;;;;;14.96;100.00;101652.03;4959000;28;20071;-88
2022/10/18 05:01:54;;;;;;;81.40;38.75;;;;;;;14.86;100.00;101656.66;4964260;29;20058;-87
2022/10/18 05:04:20;;;;;;;75.00;38.67;;;;;;;14.81;100.00;101648.31;4961198;29;20034;-88
2022/10/18 05:06:45;;;;;;;75.22;38.50;;;;;;;14.89;100.00;101642.16;4959157;29;20031;-87
2022/10/18 05:09:11;;;;;;;78.90;38.88;;;;;;;14.82;100.00;101647.31;4958396;29;20540;-87
2022/10/18 05:11:37;;;;;;;80.95;39.03;;;;;;;14.89;100.00;101648.31;4958836;28;20485;-86
2022/10/18 05:14:04;;;;;;;77.90;38.10;;;;;;;14.96;100.00;101641.34;4962435;29;20103;-88
2022/10/18 05:16:31;;;;;;;74.68;37.72;;;;;;;15.05;100.00;101638.72;4951026;29;20381;-85
2022/10/18 05:18:57;;;;;;;77.65;38.72;;;;;;;14.87;100.00;101637.00;4938620;29;20415;-87
2022/10/18 05:21:23;;;;;;;78.32;36.92;;;;;;;14.96;100.00;101637.84;4912814;29;20397;-88
2022/10/18 05:23:49;;;;;;;76.57;40.15;;;;;;;14.93;100.00;101639.00;4928182;29;20024;-86
2022/10/18 05:26:14;;;;;;;73.82;38.50;;;;;;;15.12;100.00;101640.53;4933351;29;20050;-90
2022/10/18 05:28:40;;;;;;;74.32;37.28;;;;;;;15.03;100.00;101641.53;4929907;29;20094;-86
2022/10/18 05:31:08;;;;;;;72.75;37.38;;;;;;;15.03;100.00;101636.19;4932941;29;20032;-91
2022/10/18 05:33:34;;;;;;;72.07;36.67;;;;;;;14.94;100.00;101637.16;4931255;29;20390;-90
2022/10/18 05:35:59;;;;;;;73.30;37.60;;;;;;;14.89;100.00;101634.97;4931300;29;20028;-88
2022/10/18 05:38:25;;;;;;;79.93;37.85;;;;;;;15.14;100.00;101640.38;4937840;29;20047;-88
2022/10/18 05:40:51;;;;;;;72.60;36.50;;;;;;;15.30;100.00;101629.72;4937453;29;20043;-88
2022/10/18 05:43:16;;;;;;;77.57;37.15;;;;;;;15.13;100.00;101630.69;4937124;29;20066;-89
2022/10/18 05:45:49;;;;;;;87.72;37.95;;;;;;;14.93;100.00;101631.00;4935137;29;20048;-88
2022/10/18 05:48:16;;;;;;;87.60;39.53;;;;;;;15.01;100.00;101638.19;4931209;29;20036;-89
2022/10/18 05:50:42;;;;;;;79.70;38.55;;;;;;;15.03;100.00;101636.19;4922482;29;20497;-88
2022/10/18 05:53:07;;;;;;;81.03;38.40;;;;;;;14.99;100.00;101635.69;4929975;29;20048;-88
2022/10/18 05:55:33;;;;;;;83.55;39.00;;;;;;;15.07;100.00;101626.00;4941059;29;20445;-88
2022/10/18 05:57:58;;;;;;;78.07;38.05;;;;;;;15.02;100.00;101623.81;4932303;29;20036;-86
2022/10/18 06:00:24;;;;;;;73.93;37.90;;;;;;;15.19;100.00;101630.88;4908672;29;20036;-87
2022/10/18 06:02:49;;;;;;;78.07;37.30;;;;;;;15.31;100.00;101634.06;4928833;29;20456;-90
2022/10/18 06:05:15;;;;;;;75.53;37.25;;;;;;;15.35;100.00;101636.22;4926604;29;20035;-87
2022/10/18 06:07:41;;;;;;;68.75;36.72;;;;;;;15.40;100.00;101633.06;4928981;29;20036;-89
2022/10/18 06:10:07;;;;;;;79.13;37.38;;;;;;;15.28;100.00;101634.41;4933376;29;20039;-86
2022/10/18 06:12:32;;;;;;;74.32;37.22;;;;;;;15.40;100.00;101633.91;4930355;29;20032;-88
2022/10/18 06:15:01;;;;;;;68.32;37.53;;;;;;;15.51;100.00;101635.44;4937299;29;20046;-86
2022/10/18 06:17:27;;;;;;;76.03;36.70;;;;;;;15.47;100.00;101632.25;4925263;29;20076;-86
2022/10/18 06:19:52;;;;;;;81.20;39.22;;;;;;;15.39;100.00;101642.06;4928185;29;20393;-88
2022/10/18 06:22:18;;;;;;;67.63;37.35;;;;;;;15.48;100.00;101638.44;4926520;29;20076;-88
2022/10/18 06:24:43;;;;;;;75.35;36.92;;;;;;;15.59;100.00;101632.75;4930864;29;20035;-86
2022/10/18 06:27:09;;;;;;;77.03;38.55;;;;;;;15.64;100.00;101638.44;4900729;29;20517;-86
2022/10/18 06:29:36;;;;;;;73.30;36.45;;;;;;;15.86;100.00;101640.44;4933948;29;20504;-86
2022/10/18 06:32:02;;;;;;;74.70;38.13;;;;;;;16.06;100.00;101640.06;4937811;29;20032;-88
2022/10/18 06:34:28;;;;;;;71.85;36.55;;;;;;;16.24;100.00;101654.06;4930824;29;20032;-87
2022/10/18 06:36:53;;;;;;;73.13;37.45;;;;;;;16.51;100.00;101656.28;4920014;29;20106;-90
2022/10/18 06:39:19;;;;;;;70.55;37.25;;;;;;;16.48;100.00;101662.00;4935377;29;20040;-87
2022/10/18 06:41:44;;;;;;;71.38;37.85;;;;;;;16.19;100.00;101656.41;4936016;29;20533;-90
2022/10/18 06:44:20;;;;;;;73.93;37.70;;;;;;;16.10;100.00;101657.44;4935991;29;20039;-88
2022/10/18 06:46:47;;;;;;;69.32;36.33;;;;;;;15.99;100.00;101666.63;4936644;29;20062;-89
2022/10/18 06:49:14;;;;;;;66.28;36.55;;;;;;;16.05;100.00;101665.97;4936146;29;20176;-89
2022/10/18 06:51:41;;;;;;;69.18;33.83;;;;;;;16.24;100.00;101670.13;4936286;29;20140;-87
2022/10/18 06:54:07;;;;;;;64.15;35.50;;;;;;;16.21;100.00;101670.44;4937017;29;20035;-88
2022/10/18 06:56:34;;;;;;;65.70;35.30;;;;;;;16.49;100.00;101669.03;4936070;29;20043;-89
2022/10/18 06:58:59;;;;;;;66.65;34.65;;;;;;;16.54;100.00;101672.00;4934697;29;20098;-87
2022/10/18 07:01:27;;;;;;;62.58;34.35;;;;;;;16.83;100.00;101669.59;4937103;29;20426;-88
2022/10/18 07:03:53;;;;;;;65.38;34.25;;;;;;;17.39;100.00;101672.94;4936747;29;20043;-87
2022/10/18 07:06:19;;;;;;;68.78;33.45;;;;;;;17.80;100.00;101676.16;4938022;29;20031;-87
2022/10/18 07:08:46;;;;;;;59.90;33.90;;;;;;;18.35;100.00;101683.84;4936637;29;20032;-87
2022/10/18 07:11:17;;;;;;;64.25;33.45;;;;;;;18.65;100.00;101687.38;4930159;29;20039;-87
2022/10/18 07:13:43;;;;;;;65.65;32.95;;;;;;;18.19;100.00;101686.69;4924552;29;20032;-86
2022/10/18 07:16:14;;;;;;;63.15;34.50;;;;;;;18.13;100.00;101687.44;4927313;29;20063;-88
2022/10/18 07:18:42;;;;;;;58.78;33.45;;;;;;;18.24;100.00;101687.81;4926510;29;20103;-88
2022/10/18 07:21:12;;;;;;;59.53;32.53;;;;;;;18.98;100.00;101689.47;4916792;29;20446;-88
2022/10/18 07:23:40;;;;;;;61.20;32.25;;;;;;;19.62;100.00;101692.22;4917636;29;20031;-89
2022/10/18 07:26:26;;;;;;;57.30;31.50;;;;;;;20.17;100.00;101694.16;4930309;29;20439;-88
2022/10/18 07:28:56;;;;;;;61.78;32.55;;;;;;;20.15;100.00;101701.56;4933097;29;20040;-87
2022/10/18 07:31:22;;;;;;;66.65;33.78;;;;;;;19.88;100.00;101697.88;4937195;29;20047;-89
2022/10/18 07:33:48;;;;;;;65.78;34.08;;;;;;;19.59;100.00;101706.06;4935983;29;20050;-87
2022/10/18 07:36:14;;;;;;;69.03;34.38;;;;;;;19.41;100.00;101701.16;4935667;29;20482;-88
2022/10/18 07:38:40;;;;;;;60.28;33.20;;;;;;;19.25;100.00;101703.22;4935191;29;20043;-86
2022/10/18 07:41:07;;;;;;;58.88;32.95;;;;;;;19.36;100.00;101691.94;4934856;29;20036;-86
2022/10/18 07:43:35;;;;;;;63.50;33.75;;;;;;;19.48;100.00;101701.22;4920760;29;20063;-87
2022/10/18 07:46:03;;;;;;;64.32;33.13;;;;;;;19.61;100.00;101701.34;4929870;29;20378;-87
2022/10/18 07:48:30;;;;;;;56.13;31.92;;;;;;;19.58;100.00;101704.41;4912291;29;20079;-88
2022/10/18 07:51:00;;;;;;;59.83;32.55;;;;;;;20.23;100.00;101701.44;4935115;29;20031;-87
2022/10/18 07:53:27;;;;;;;57.00;30.92;;;;;;;20.29;100.00;101699.84;4934608;29;20148;-88
2022/10/18 07:55:59;;;;;;;63.67;32.35;;;;;;;20.04;100.00;101697.59;4935006;29;20031;-87
2022/10/18 07:58:25;;;;;;;52.80;30.45;;;;;;;20.17;100.00;101698.69;4918829;29;20055;-88
2022/10/18 08:00:51;;;;;;;56.00;32.03;;;;;;;19.98;100.00;101706.44;4936106;29;20032;-88
2022/10/18 08:03:17;;;;;;;52.03;30.40;;;;;;;20.30;100.00;101698.81;4936428;29;20541;-89
2022/10/18 08:05:42;;;;;;;54.50;30.67;;;;;;;20.35;100.00;101705.28;4935958;29;20090;-89
2022/10/18 08:08:08;;;;;;;51.20;31.60;;;;;;;20.28;100.00;101703.59;4936163;29;20031;-87
2022/10/18 08:10:35;;;;;;;56.67;31.83;;;;;;;20.37;100.00;101710.47;4936539;29;20036;-87
2022/10/18 08:13:00;;;;;;;55.60;30.45;;;;;;;20.64;100.00;101712.31;4937638;29;20031;-87
2022/10/18 08:15:30;;;;;;;54.65;31.92;;;;;;;20.57;100.00;101708.75;4938355;29;20040;-89
2022/10/18 08:17:55;;;;;;;65.15;31.05;;;;;;;20.50;100.00;101706.00;4937457;29;20035;-88
2022/10/18 08:20:21;;;;;;;62.20;33.05;;;;;;;20.35;100.00;101699.88;4937739;29;20046;-88
2022/10/18 08:22:50;;;;;;;55.95;31.60;;;;;;;20.65;100.00;101705.88;4942498;29;20055;-87
2022/10/18 08:25:16;;;;;;;57.55;31.80;;;;;;;20.86;100.00;101703.06;4943841;29;20063;-87
2022/10/18 08:27:41;;;;;;;56.35;31.90;;;;;;;20.93;100.00;101703.09;4950729;29;20036;-87
2022/10/18 08:30:08;;;;;;;58.35;31.27;;;;;;;20.68;100.00;101705.50;4941652;29;20054;-88
2022/10/18 08:32:34;;;;;;;57.20;32.90;;;;;;;20.63;100.00;101702.56;4941078;29;20548;-86
2022/10/18 08:35:00;;;;;;;59.33;33.33;;;;;;;20.43;100.00;101690.81;4949570;29;20043;-89
2022/10/18 08:37:25;;;;;;;57.22;30.05;;;;;;;20.75;100.00;101690.16;4949609;29;20083;-89
2022/10/18 08:39:51;;;;;;;53.75;31.67;;;;;;;20.96;100.00;101686.53;4951952;29;20038;-88
2022/10/18 08:42:59;;;;;;;53.35;31.35;;;;;;;20.72;100.00;101687.03;4948364;29;20062;-85
2022/10/18 08:45:26;;;;;;;56.10;31.33;;;;;;;20.53;100.00;101688.59;4954542;29;20048;-88
2022/10/18 08:47:56;;;;;;;60.70;31.70;;;;;;;20.47;100.00;101694.78;4961547;29;20028;-87
2022/10/18 08:50:35;;;;;;;57.80;32.03;;;;;;;20.20;100.00;101690.22;4962240;29;20024;-88
2022/10/18 08:53:04;;;;;;;57.60;32.20;;;;;;;20.23;100.00;101692.53;4962704;29;20028;-85
2022/10/18 08:55:42;;;;;;;55.90;32.95;;;;;;;20.41;100.00;101698.28;4961541;29;20034;-88
2022/10/18 08:58:25;;;;;;;60.15;32.85;;;;;;;20.45;100.00;101696.88;4957775;29;20055;-87
2022/10/18 09:01:09;;;;;;;57.28;33.70;;;;;;;20.76;100.00;101697.22;4955669;29;20044;-87
2022/10/18 09:03:51;;;;;;;58.08;32.33;;;;;;;20.70;100.00;101692.63;4958041;29;20051;-87
2022/10/18 09:06:30;;;;;;;59.63;31.13;;;;;;;20.75;100.00;101698.25;4961664;29;20028;-87
2022/10/18 09:09:04;;;;;;;63.92;32.47;;;;;;;20.97;100.00;101698.97;4962293;29;20027;-87
2022/10/18 09:12:01;;;;;;;63.03;33.15;;;;;;;21.00;100.00;101695.88;4961829;29;20054;-88
2022/10/18 09:14:45;;;;;;;65.05;33.25;;;;;;;21.02;100.00;101686.56;4960518;29;20035;-87
2022/10/18 09:17:13;;;;;;;64.22;34.53;;;;;;;21.07;100.00;101688.66;4960475;29;20039;-88
2022/10/18 09:19:45;;;;;;;62.80;35.58;;;;;;;20.95;100.00;101683.00;4942444;29;20060;-90
2022/10/18 09:22:18;;;;;;;70.65;34.63;;;;;;;20.87;100.00;101688.56;4939008;29;20047;-89
2022/10/18 09:25:16;;;;;;;66.78;36.67;;;;;;;21.03;100.00;101682.84;4940791;29;20147;-90
2022/10/18 09:27:51;;;;;;;71.97;36.60;;;;;;;20.95;100.00;101685.69;4928762;29;20426;-90
2022/10/18 09:30:28;;;;;;;68.45;35.10;;;;;;;21.01;100.00;101676.78;4936945;29;20040;-87
2022/10/18 09:33:23;;;;;;;66.22;35.50;;;;;;;21.21;100.00;101681.47;4938332;29;20040;-91
2022/10/18 09:35:54;;;;;;;63.08;35.70;;;;;;;21.36;100.00;101668.63;4886557;29;20049;-88
2022/10/18 09:38:25;;;;;;;65.95;35.05;;;;;;;21.54;100.00;101671.56;4936420;29;20462;-85
2022/10/18 09:40:57;;;;;;;63.40;36.67;;;;;;;21.60;100.00;101673.44;4936470;29;20042;-86
2022/10/18 09:43:49;;;;;;;67.28;36.90;;;;;;;21.76;100.00;101658.69;4948553;29;20035;-91
2022/10/18 09:46:18;;;;;;;68.70;36.40;;;;;;;21.71;100.00;101642.31;4957089;28;20046;-89
2022/10/18 09:48:59;;;;;;;65.07;38.05;;;;;;;22.11;100.00;101655.59;4955588;29;20039;-90
2022/10/18 09:51:36;;;;;;;75.97;39.35;;;;;;;22.73;100.00;101656.91;4939016;29;20482;-90
2022/10/18 09:54:30;;;;;;;78.40;39.45;;;;;;;23.57;100.00;101643.09;4928835;29;20118;-90
2022/10/18 09:57:04;;;;;;;66.07;37.25;;;;;;;24.55;96.99;101650.31;4923166;29;20040;-90
2022/10/18 09:59:35;;;;;;;63.40;36.92;;;;;;;24.90;93.81;101653.22;4920740;29;20059;-89
2022/10/18 10:02:01;;;;;;;64.28;36.50;;;;;;;25.00;93.81;101653.50;4941576;29;20031;-87
2022/10/18 10:04:27;;;;;;;69.80;37.40;;;;;;;26.06;87.08;101653.50;4949864;29;20493;-92
2022/10/18 10:06:58;;;;;;;62.13;35.33;;;;;;;26.73;84.85;101659.34;4926186;29;20046;-88
2022/10/18 10:09:43;;;;;;;65.95;38.20;;;;;;;27.21;79.71;101657.03;4921270;29;20476;-90
2022/10/18 10:12:27;;;;;;;62.55;37.53;;;;;;;27.19;79.12;101658.34;4918524;29;20479;-92
2022/10/18 10:14:52;;;;;;;70.50;37.95;;;;;;;27.90;75.88;101652.25;4919806;29;20036;-92
2022/10/18 10:17:29;;;;;;;71.90;38.60;;;;;;;27.37;78.05;101660.06;4936425;29;20131;-89
2022/10/18 10:20:02;;;;;;;79.57;38.60;;;;;;;28.05;74.14;101657.09;4937843;29;20101;-91
2022/10/18 10:22:37;;;;;;;90.32;41.65;;;;;;;27.84;74.90;101647.78;4938755;29;20040;-91
2022/10/18 10:25:04;;;;;;;77.32;40.10;;;;;;;27.79;74.99;101653.16;4942788;29;20401;-91
2022/10/18 10:27:42;;;;;;;74.35;41.33;;;;;;;28.27;73.45;101649.00;4939107;29;20027;-92
2022/10/18 10:30:26;;;;;;;77.95;41.45;;;;;;;28.80;68.78;101646.44;4938643;29;20066;-88
2022/10/18 10:32:54;;;;;;;78.18;42.05;;;;;;;27.45;74.72;101646.03;4938829;29;20036;-91
2022/10/18 10:35:30;;;;;;;75.05;41.58;;;;;;;26.38;80.79;101634.13;4922860;29;20400;-89
2022/10/18 10:37:56;;;;;;;72.28;43.33;;;;;;;25.38;86.04;101630.63;4928796;29;20040;-91
2022/10/18 10:40:52;;;;;;;77.55;43.25;;;;;;;25.22;87.31;101625.88;4930167;29;20532;-91
2022/10/18 10:43:29;;;;;;;71.15;41.78;;;;;;;24.96;88.57;101614.31;4923198;29;20032;-87
2022/10/18 10:46:02;;;;;;;75.72;43.55;;;;;;;24.98;84.57;101616.81;4922601;29;20625;-88
2022/10/18 10:48:32;;;;;;;75.15;44.70;;;;;;;24.48;87.58;101621.63;4935036;29;20058;-87
2022/10/18 10:51:09;;;;;;;84.80;46.55;;;;;;;24.10;89.93;101602.81;4938349;29;20035;-91
2022/10/18 10:53:49;;;;;;;86.38;47.22;;;;;;;24.01;91.48;101599.59;4937261;29;20878;-90
2022/10/18 10:56:21;;;;;;;85.20;48.97;;;;;;;23.87;92.53;101595.34;4936409;29;20397;-89
2022/10/18 10:58:47;;;;;;;81.03;44.22;;;;;;;23.82;93.39;101584.38;4936559;29;20043;-90
2022/10/18 11:01:40;;;;;;;78.53;48.38;;;;;;;24.03;91.67;101586.66;4936306;29;20067;-91
2022/10/18 11:04:29;;;;;;;88.15;49.03;;;;;;;23.93;92.45;101580.91;4933433;29;20142;-91
2022/10/18 11:06:59;;;;;;;89.72;50.95;;;;;;;23.82;92.57;101573.56;4921457;29;20032;-91
2022/10/18 11:10:01;;;;;;;93.78;51.42;;;;;;;23.68;94.44;101567.44;4937835;29;20051;-92
2022/10/18 11:12:35;;;;;;;89.47;50.53;;;;;;;23.86;93.81;101569.34;4900136;29;20040;-91
2022/10/18 11:15:30;;;;;;;84.47;49.22;;;;;;;23.95;93.46;101562.59;4920203;29;20040;-90
2022/10/18 11:18:09;;;;;;;100.05;53.08;;;;;;;23.77;94.21;101556.31;4918408;29;20032;-93
2022/10/18 11:20:48;;;;;;;99.03;55.10;;;;;;;23.59;95.27;101547.13;4918590;29;20147;-93